Overview Statistics Trail Chart Weather Telemetry Raw packets
 

This is the latest recevied weather packets stored in our database for station/object OK5TVR-5. If no packets are shown the sender has not sent any weather packets the latest 10 day(s).

<< 33 34 35 36 37 38 39 >>
Time Temp. Humidity Pressure Rain* Wind** Luminosity Snow
1787946863 18.89° C 86% 1007.3 hPa 0 mm - 0 W/m² -
1787945963 18.33° C 92% 1007.7 hPa 0 mm - 0 W/m² -
1787945063 18.33° C 92% 1007 hPa 0 mm - 0 W/m² -
1787945063 18.33° C 92% 1007 hPa 0 mm - 0 W/m² -
1787943306 19.44° C 86% 1006.2 hPa 0 mm - 0 W/m² -
1787942406 18.89° C 89% 1006.4 hPa 0 mm - 0 W/m² -
1787941506 19.44° C 86% 1006 hPa 0 mm - 0 W/m² -
1787940606 19.44° C 85% 1005.7 hPa 0 mm - 0 W/m² -
1787939706 20° C 84% 1005.8 hPa 0 mm - 1 W/m² -
1787938806 20° C 81% 1005.7 hPa 0.25 mm - 3 W/m² -
1787937906 20° C 81% 1006.4 hPa 0.25 mm - 6 W/m² -
1787937006 20° C 83% 1005.9 hPa 0.76 mm - 18 W/m² -
1787936111 20.56° C 84% 1006.7 hPa 1.02 mm - 22 W/m² -
1787936110 20.56° C 84% 1006.7 hPa 1.02 mm - 22 W/m² -
1787936110 20.56° C 84% 1006.7 hPa 1.02 mm - 22 W/m² -
1787936106 20.56° C 84% 1006.7 hPa 1.02 mm - 22 W/m² -
1787935206 20.56° C 82% 1006.9 hPa 1.02 mm - 9 W/m² -
1787934310 - - - - - - -
1787934306 21.11° C 80% 1007.2 hPa 1.02 mm - 14 W/m² -
1787934306 - - - - - - -
1787933406 20.56° C 85% 1007.4 hPa 0.51 mm - 5 W/m² -
1787932506 21.11° C 78% 1007.6 hPa 0.25 mm - 8 W/m² -
1787930787 23.33° C 59% 1006.7 hPa 0 mm - 8 W/m² -
1787929887 23.89° C 57% 1006.4 hPa 0 mm - 35 W/m² -
1787928987 23.89° C 57% 1005.7 hPa 0 mm - 55 W/m² -

* Rain latest hour (hover to see other rain measurements)
** Current wind speed in m/s (hover to see current wind gust speed)